createdAt,value
2022-09-07T00:04:27.923Z,3.40
2022-09-07T00:09:31.452Z,2.87
2022-09-07T00:14:35.860Z,2.80
2022-09-07T00:19:39.380Z,3.20
2022-09-07T00:24:42.923Z,3.00
2022-09-07T00:29:46.602Z,3.47
2022-09-07T00:34:51.693Z,2.93
2022-09-07T00:39:55.121Z,2.60
2022-09-07T00:45:08.041Z,3.13
2022-09-07T00:50:43.863Z,3.10
2022-09-07T00:55:50.282Z,3.00
2022-09-07T01:00:53.912Z,3.07
2022-09-07T01:06:06.224Z,3.03
2022-09-07T01:11:09.703Z,3.33
2022-09-07T01:16:34.328Z,3.60
2022-09-07T01:21:43.652Z,6.40
2022-09-07T01:27:15.012Z,5.47
2022-09-07T01:32:18.022Z,5.23
2022-09-07T01:37:52.888Z,5.87
2022-09-07T01:43:09.593Z,5.63
2022-09-07T01:48:17.737Z,6.23
2022-09-07T01:53:29.323Z,7.80
2022-09-07T01:58:45.700Z,7.40
2022-09-07T02:03:54.764Z,6.70
2022-09-07T02:09:06.080Z,4.77
2022-09-07T02:14:16.770Z,4.67
2022-09-07T02:19:22.534Z,3.67
2022-09-07T02:24:36.712Z,3.97
2022-09-07T02:29:40.302Z,3.83
2022-09-07T02:34:43.838Z,4.03
2022-09-07T02:39:48.497Z,3.93
2022-09-07T02:44:52.336Z,3.13
2022-09-07T02:50:13.635Z,3.60
2022-09-07T02:55:33.515Z,3.37
2022-09-07T03:00:54.940Z,3.47
2022-09-07T03:06:02.692Z,4.27
2022-09-07T03:11:07.692Z,4.00
2022-09-07T03:16:15.047Z,4.27
2022-09-07T03:21:18.321Z,3.80
2022-09-07T03:26:25.821Z,4.23
2022-09-07T03:31:29.572Z,4.47
2022-09-07T03:36:33.937Z,6.30
2022-09-07T03:41:37.494Z,4.63
2022-09-07T03:46:41.016Z,4.83
2022-09-07T03:51:44.431Z,4.80
2022-09-07T03:56:48.041Z,4.60
2022-09-07T04:01:51.877Z,5.67
2022-09-07T04:06:56.023Z,5.07
2022-09-07T04:11:59.763Z,5.83
2022-09-07T04:17:03.394Z,7.27
2022-09-07T04:22:06.872Z,7.60
2022-09-07T04:27:10.296Z,7.50
2022-09-07T04:32:15.848Z,7.30
2022-09-07T04:37:19.887Z,7.17
2022-09-07T04:42:23.481Z,6.23
2022-09-07T04:47:27.254Z,5.97
2022-09-07T04:52:33.445Z,5.90
2022-09-07T04:57:37.284Z,5.17
2022-09-07T05:02:40.802Z,7.30
2022-09-07T05:07:44.281Z,5.57
2022-09-07T05:12:48.023Z,4.73
2022-09-07T05:17:52.131Z,4.77
2022-09-07T05:23:00.112Z,4.63
2022-09-07T05:28:04.954Z,4.97
2022-09-07T05:33:12.825Z,5.33
2022-09-07T05:38:16.245Z,5.13
2022-09-07T05:43:19.783Z,4.90
2022-09-07T05:48:23.213Z,5.50
2022-09-07T05:53:26.794Z,5.47
2022-09-07T05:58:30.851Z,5.87
2022-09-07T06:03:38.793Z,5.57
2022-09-07T06:08:48.387Z,5.07
2022-09-07T06:13:53.185Z,4.60
2022-09-07T06:18:56.691Z,5.20
2022-09-07T06:23:59.965Z,4.37
2022-09-07T06:29:04.443Z,4.27
2022-09-07T06:34:08.112Z,4.93
2022-09-07T06:39:11.825Z,4.77
2022-09-07T06:44:15.604Z,4.77
2022-09-07T06:49:19.920Z,4.73
2022-09-07T06:59:48.564Z,3.80
2022-09-07T07:04:52.161Z,3.43
2022-09-07T07:09:55.936Z,3.43
2022-09-07T07:15:00.023Z,3.20
2022-09-07T07:20:07.052Z,3.53
2022-09-07T07:25:10.993Z,2.83
2022-09-07T07:30:16.345Z,2.47
2022-09-07T07:35:21.063Z,1.93
2022-09-07T07:40:28.989Z,2.20
2022-09-07T07:51:11.853Z,2.33
2022-09-07T07:56:16.065Z,2.03
2022-09-07T08:01:20.111Z,2.30
2022-09-07T08:06:23.594Z,2.27
2022-09-07T08:11:26.934Z,2.17
2022-09-07T08:16:30.508Z,1.67
2022-09-07T08:21:34.279Z,1.93
2022-09-07T08:26:40.364Z,2.67
2022-09-07T08:31:45.017Z,1.87
2022-09-07T08:36:48.926Z,1.17
2022-09-07T08:42:24.705Z,1.50
2022-09-07T08:47:49.477Z,1.30
2022-09-07T08:53:14.157Z,1.42
2022-09-07T08:58:49.120Z,1.50
2022-09-07T09:09:53.065Z,1.20
2022-09-07T09:15:15.263Z,1.20
2022-09-07T09:20:25.512Z,0.90
2022-09-07T09:25:35.655Z,0.75
2022-09-07T09:30:39.631Z,0.90
2022-09-07T09:35:44.283Z,0.70
2022-09-07T09:40:53.784Z,1.50
2022-09-07T09:46:14.357Z,0.93
2022-09-07T09:56:47.114Z,0.90
2022-09-07T10:07:21.922Z,1.00
2022-09-07T10:12:32.700Z,1.00
2022-09-07T10:17:44.335Z,0.93
2022-09-07T10:23:00.014Z,0.60
2022-09-07T10:28:10.374Z,1.13
2022-09-07T10:33:33.592Z,0.57
2022-09-07T10:38:51.193Z,0.82
2022-09-07T10:43:54.844Z,0.95
2022-09-07T10:49:28.100Z,0.68
2022-09-07T10:54:55.497Z,0.65
2022-09-07T11:00:32.464Z,0.73
2022-09-07T11:05:58.101Z,0.63
2022-09-07T11:17:21.603Z,0.70
2022-09-07T11:22:42.894Z,0.60
2022-09-07T11:28:03.737Z,0.60
2022-09-07T11:33:19.144Z,0.80
2022-09-07T11:38:31.806Z,0.70
2022-09-07T11:43:44.640Z,0.60
2022-09-07T11:48:55.920Z,0.70
2022-09-07T11:54:05.945Z,0.75
2022-09-07T11:59:18.404Z,0.65
2022-09-07T12:04:33.547Z,0.82
2022-09-07T12:09:51.735Z,0.80
2022-09-07T12:15:03.463Z,0.90
2022-09-07T12:20:18.648Z,0.90
2022-09-07T12:25:22.513Z,1.05
2022-09-07T12:30:25.495Z,1.40
2022-09-07T12:35:29.021Z,0.90
2022-09-07T12:40:33.544Z,1.08
2022-09-07T12:45:39.797Z,1.00
2022-09-07T12:51:05.343Z,1.88
2022-09-07T12:56:36.650Z,0.90
2022-09-07T13:01:52.615Z,1.00
2022-09-07T13:07:08.899Z,0.70
2022-09-07T13:17:59.773Z,0.90
2022-09-07T13:23:23.778Z,1.05
2022-09-07T13:28:40.131Z,1.10
2022-09-07T13:33:48.357Z,0.68
2022-09-07T13:38:52.923Z,0.70
2022-09-07T13:44:02.089Z,0.90
2022-09-07T13:49:47.007Z,1.10
2022-09-07T13:55:02.713Z,1.00
2022-09-07T14:00:13.964Z,0.93
2022-09-07T14:05:21.023Z,1.10
2022-09-07T14:10:26.390Z,1.20
2022-09-07T14:15:41.369Z,1.30
2022-09-07T14:20:50.673Z,1.00
2022-09-07T14:26:20.676Z,0.90
2022-09-07T14:31:25.654Z,1.00
2022-09-07T14:36:45.737Z,1.02
2022-09-07T14:41:51.990Z,1.15
2022-09-07T14:46:57.199Z,0.90
2022-09-07T14:52:02.263Z,1.10
2022-09-07T14:57:07.468Z,0.98
2022-09-07T15:02:20.238Z,2.75
2022-09-07T15:07:42.092Z,1.02
2022-09-07T15:12:46.552Z,1.88
2022-09-07T15:17:49.935Z,1.13
2022-09-07T15:22:54.395Z,1.50
2022-09-07T15:27:58.094Z,1.30
2022-09-07T15:33:01.684Z,3.85
2022-09-07T15:38:05.520Z,2.72
2022-09-07T15:43:20.126Z,1.42
2022-09-07T15:48:26.770Z,1.33
2022-09-07T15:58:54.836Z,1.75
2022-09-07T16:03:59.453Z,2.45
2022-09-07T16:09:06.165Z,2.58
2022-09-07T16:14:12.614Z,2.88
2022-09-07T16:19:20.523Z,2.55
2022-09-07T16:24:24.793Z,2.05
2022-09-07T16:29:28.504Z,2.10
2022-09-07T16:34:34.205Z,5.85
2022-09-07T16:39:38.492Z,2.25
2022-09-07T16:44:42.648Z,1.83
2022-09-07T16:49:46.193Z,1.23
2022-09-07T16:54:52.624Z,1.65
2022-09-07T16:59:56.084Z,1.73
2022-09-07T17:04:59.153Z,1.27
2022-09-07T17:10:04.122Z,1.27
2022-09-07T17:15:09.445Z,2.58
2022-09-07T17:20:12.635Z,1.58
2022-09-07T17:25:16.184Z,2.05
2022-09-07T17:30:20.731Z,1.70
2022-09-07T17:35:24.653Z,1.90
2022-09-07T17:40:28.616Z,1.97
2022-09-07T17:45:34.512Z,2.33
2022-09-07T17:50:38.836Z,2.43
2022-09-07T17:55:46.003Z,2.80
2022-09-07T18:00:50.946Z,2.53
2022-09-07T18:05:55.973Z,3.50
2022-09-07T18:16:35.954Z,3.07
2022-09-07T18:21:42.887Z,2.93
2022-09-07T18:26:52.098Z,3.63
2022-09-07T18:31:57.488Z,5.47
2022-09-07T18:37:02.529Z,4.33
2022-09-07T18:42:11.163Z,4.53
2022-09-07T18:47:28.074Z,5.17
2022-09-07T18:57:58.437Z,4.80
2022-09-07T19:03:03.805Z,5.10
2022-09-07T19:08:08.582Z,6.53
2022-09-07T19:13:13.031Z,6.60
2022-09-07T19:18:17.375Z,6.33
2022-09-07T19:23:22.242Z,6.33
2022-09-07T19:28:26.414Z,6.90
2022-09-07T19:33:30.826Z,7.07
2022-09-07T19:38:37.161Z,6.57
2022-09-07T19:43:42.235Z,7.63
2022-09-07T19:48:47.343Z,7.13
2022-09-07T19:53:51.666Z,7.93
2022-09-07T19:58:56.269Z,7.67
2022-09-07T20:04:03.876Z,6.90
2022-09-07T20:09:09.209Z,6.20
2022-09-07T20:14:13.303Z,7.00
2022-09-07T20:19:17.501Z,6.53
2022-09-07T20:24:23.265Z,7.03
2022-09-07T20:29:29.018Z,6.67
2022-09-07T20:34:33.233Z,6.40
2022-09-07T20:39:39.536Z,5.93
2022-09-07T20:44:43.660Z,6.10
2022-09-07T20:49:47.995Z,6.60
2022-09-07T20:54:52.736Z,6.40
2022-09-07T20:59:58.052Z,6.17
2022-09-07T21:05:05.926Z,6.03
2022-09-07T21:10:10.875Z,5.77
2022-09-07T21:15:14.966Z,5.30
2022-09-07T21:20:18.161Z,4.80
2022-09-07T21:25:21.256Z,4.20
2022-09-07T21:30:24.729Z,5.10
2022-09-07T21:35:28.324Z,4.50
2022-09-07T21:40:31.737Z,4.30
2022-09-07T21:45:35.264Z,3.77
2022-09-07T21:50:38.675Z,3.70
2022-09-07T21:55:42.135Z,3.20
2022-09-07T22:00:45.540Z,4.27
2022-09-07T22:05:49.165Z,4.00
2022-09-07T22:10:52.226Z,3.57
2022-09-07T22:15:55.669Z,4.23
2022-09-07T22:21:07.111Z,3.77
2022-09-07T22:26:10.932Z,4.37
2022-09-07T22:31:28.139Z,3.97
2022-09-07T22:36:34.807Z,3.30
2022-09-07T22:41:39.445Z,4.07
2022-09-07T22:46:44.335Z,4.20
2022-09-07T22:51:47.830Z,3.50
2022-09-07T22:56:51.208Z,4.03
2022-09-07T23:01:54.865Z,4.23
2022-09-07T23:06:58.430Z,4.23
2022-09-07T23:12:02.197Z,3.80
2022-09-07T23:17:05.456Z,3.77
2022-09-07T23:22:09.035Z,4.53
2022-09-07T23:27:12.504Z,4.80
2022-09-07T23:32:16.045Z,4.23
2022-09-07T23:37:19.774Z,4.43
2022-09-07T23:42:23.500Z,4.30
2022-09-07T23:47:27.892Z,4.23
2022-09-07T23:52:32.014Z,3.73
2022-09-07T23:57:35.594Z,3.90
